Time;durP1;ratioP1;P1;durP2;ratioP2;P2;SDS_P1;SDS_P2;PMS_P1;PMS_P2;Temp;Humidity;BMP_temperature;BMP_pressure;BME280_temperature;BME280_humidity;BME280_pressure;Samples;Min_cycle;Max_cycle;Signal;HPM_P1;HPM_P2
2022/12/17 13:07:47;;;;;;;45.83;18.52;;;;;;;-12.63;73.83;100127.25;4919131;28;20060;-63
2022/12/17 13:10:35;;;;;;;50.53;17.52;;;;;;;-12.56;74.37;100125.16;5042223;28;20061;-64
2022/12/17 13:14:20;;;;;;;46.35;17.70;;;;;;;-12.55;73.93;100116.84;5047959;28;20447;-65
2022/12/17 13:17:31;;;;;;;39.28;16.75;;;;;;;-12.55;73.98;100117.75;5040830;28;20061;-64
2022/12/17 13:20:34;;;;;;;49.78;17.38;;;;;;;-12.51;73.98;100108.75;4903712;28;20080;-65
2022/12/17 13:23:40;;;;;;;46.63;16.77;;;;;;;-12.68;73.25;100107.53;4893016;28;20047;-64
2022/12/17 13:26:47;;;;;;;39.85;16.05;;;;;;;-12.80;73.20;100099.97;4895294;28;20045;-65
2022/12/17 13:29:43;;;;;;;44.90;18.05;;;;;;;-12.83;73.10;100090.56;4902751;28;20049;-63
2022/12/17 13:32:26;;;;;;;54.55;19.42;;;;;;;-12.83;73.02;100104.75;4894616;28;20092;-63
2022/12/17 13:35:26;;;;;;;51.80;19.52;;;;;;;-12.83;73.39;100099.72;4898496;28;20341;-64
2022/12/17 13:38:36;;;;;;;58.75;19.00;;;;;;;-12.85;73.00;100096.25;4829077;28;20052;-64
2022/12/17 13:41:16;;;;;;;59.33;20.17;;;;;;;-12.96;72.85;100071.94;4889005;28;20107;-64
2022/12/17 13:44:09;;;;;;;52.47;18.98;;;;;;;-13.00;72.72;100080.00;4893342;28;20112;-65
2022/12/17 13:47:03;;;;;;;83.40;23.83;;;;;;;-13.11;72.19;100092.66;4903065;28;20053;-65
2022/12/17 13:52:59;;;;;;;87.40;27.38;;;;;;;-13.70;71.55;100086.59;4851313;28;20086;-64
2022/12/17 13:55:52;;;;;;;;;;;;;;;-13.95;71.17;100084.72;4841588;28;20038;-64
2022/12/17 13:58:45;;;;;;;51.92;19.17;;;;;;;-14.17;71.76;100077.13;4887497;28;19952;-64
2022/12/17 14:01:27;;;;;;;48.85;18.67;;;;;;;-14.22;72.10;100057.47;4886692;28;20050;-63
2022/12/17 14:04:43;;;;;;;55.03;19.55;;;;;;;-14.38;71.72;100041.19;4897724;28;20041;-64
2022/12/17 14:07:26;;;;;;;47.20;17.40;;;;;;;-14.37;71.59;100042.97;4875391;28;20277;-64
2022/12/17 14:10:01;;;;;;;56.78;18.17;;;;;;;-14.53;72.14;100019.94;4895114;28;20108;-66
2022/12/17 14:12:42;;;;;;;37.13;16.25;;;;;;;-14.59;72.17;100019.47;4876155;28;20114;-64
2022/12/17 14:15:39;;;;;;;41.72;15.50;;;;;;;-14.78;72.21;100012.13;4871861;28;20060;-63
2022/12/17 14:18:24;;;;;;;;;;;;;;;-14.96;72.69;100006.53;4872909;28;20056;-63
2022/12/17 14:27:34;;;;;;;30.60;10.70;;;;;;;-14.79;73.76;99996.22;4904656;28;20058;-63
2022/12/17 14:30:36;;;;;;;28.70;9.25;;;;;;;-15.42;73.50;99872.56;4912436;28;20065;-64
2022/12/17 14:33:34;;;;;;;29.05;9.48;;;;;;;-14.67;74.39;99986.28;4887383;28;20042;-63
2022/12/17 14:36:24;;;;;;;47.15;14.18;;;;;;;-14.48;74.61;99983.53;4877632;28;20072;-63
2022/12/17 14:45:04;;;;;;;45.15;14.70;;;;;;;-14.71;73.04;99969.22;4886024;28;20041;-63
2022/12/17 14:48:05;;;;;;;38.08;14.73;;;;;;;-14.82;72.57;99955.84;4911335;28;20101;-64
2022/12/17 14:51:07;;;;;;;40.70;13.23;;;;;;;-14.55;72.71;99981.31;4912659;28;20152;-63
2022/12/17 14:54:28;;;;;;;30.27;12.82;;;;;;;-14.59;71.87;99974.34;4908067;28;20049;-63
2022/12/17 14:57:30;;;;;;;33.35;13.07;;;;;;;-14.79;71.25;99961.09;4897221;28;20037;-64
2022/12/17 15:03:28;;;;;;;37.85;13.60;;;;;;;-15.26;70.18;99940.66;4887738;28;20064;-63
2022/12/17 15:06:25;;;;;;;30.25;12.25;;;;;;;-15.45;69.84;99932.44;4931760;28;20267;-63
2022/12/17 15:09:18;;;;;;;35.50;13.20;;;;;;;-15.49;70.25;99925.44;4927259;28;20054;-64
2022/12/17 15:12:19;;;;;;;33.28;11.95;;;;;;;-15.49;70.73;99921.31;4902620;28;20305;-63
2022/12/17 15:15:30;;;;;;;30.80;11.80;;;;;;;-15.54;71.12;99909.16;4914255;28;20052;-63
2022/12/17 15:18:14;;;;;;;28.17;11.35;;;;;;;-15.52;71.40;99920.16;4914319;28;20048;-64
2022/12/17 15:21:03;;;;;;;28.75;9.90;;;;;;;-15.45;72.02;99914.91;4902861;28;20040;-64
2022/12/17 15:23:59;;;;;;;24.20;9.90;;;;;;;-15.24;72.83;99911.59;4867346;28;20310;-64
2022/12/17 15:26:47;;;;;;;21.95;9.32;;;;;;;-15.12;73.48;99888.25;4910991;28;20045;-64
2022/12/17 15:32:51;;;;;;;23.33;7.85;;;;;;;-14.85;73.33;99887.91;4881782;28;20058;-64
2022/12/17 15:35:27;;;;;;;16.95;6.40;;;;;;;-14.88;73.05;99866.72;4820466;28;20046;-64
2022/12/17 15:38:18;;;;;;;10.45;5.68;;;;;;;-14.90;73.81;99856.59;4862370;28;20065;-64
2022/12/17 15:44:04;;;;;;;6.13;3.75;;;;;;;-14.93;73.89;99840.44;4856691;28;20116;-63
2022/12/17 15:49:54;;;;;;;5.38;3.45;;;;;;;-15.03;74.68;99813.78;4866853;28;20069;-63
2022/12/17 15:52:35;;;;;;;7.63;3.53;;;;;;;-14.99;74.86;99800.72;4838466;28;20098;-63
2022/12/17 15:55:49;;;;;;;6.40;3.78;;;;;;;-15.05;75.15;99800.25;4788854;29;20070;-63
2022/12/17 16:01:26;;;;;;;26.95;6.95;;;;;;;-14.70;76.57;99779.47;4788444;28;20061;-63
2022/12/17 16:04:05;;;;;;;26.55;7.82;;;;;;;-14.46;76.52;99776.28;4784830;29;20043;-63
2022/12/17 16:07:03;;;;;;;30.98;7.15;;;;;;;-14.36;76.19;99762.78;4805611;29;20050;-63
2022/12/17 16:10:03;;;;;;;5.88;3.20;;;;;;;-14.51;75.97;99761.66;4817293;29;20070;-64
2022/12/17 16:12:47;;;;;;;3.30;2.28;;;;;;;-14.49;76.69;99735.91;4770232;29;20076;-64
2022/12/17 16:15:31;;;;;;;4.10;2.85;;;;;;;-14.26;77.93;99759.31;4806849;29;20058;-63
2022/12/17 16:18:17;;;;;;;3.63;2.45;;;;;;;-14.08;78.09;99745.56;4779444;29;20063;-64
2022/12/17 16:21:08;;;;;;;5.20;2.60;;;;;;;-14.01;78.36;99742.75;4807014;29;20329;-63
2022/12/17 16:24:04;;;;;;;3.53;3.00;;;;;;;-13.91;78.76;99740.13;4848100;28;20112;-64
2022/12/17 16:26:48;;;;;;;3.47;2.50;;;;;;;-13.94;78.32;99734.88;4868855;28;20037;-64
2022/12/17 16:29:44;;;;;;;5.07;2.50;;;;;;;-13.95;78.49;99743.19;4859308;28;20080;-63
2022/12/17 16:32:32;;;;;;;4.22;2.70;;;;;;;-14.05;78.30;99738.28;4817751;28;20052;-64
2022/12/17 16:35:12;;;;;;;3.83;2.40;;;;;;;-14.22;78.28;99736.19;4921989;28;20050;-64
2022/12/17 16:37:49;;;;;;;5.43;3.30;;;;;;;-14.32;76.99;99748.78;4896182;28;20040;-65
2022/12/17 16:40:33;;;;;;;10.55;3.92;;;;;;;-14.51;76.52;99752.47;4927569;28;20071;-63
2022/12/17 16:43:27;;;;;;;5.32;3.00;;;;;;;-14.53;76.22;99749.00;4889045;28;20040;-63
2022/12/17 16:49:24;;;;;;;7.80;3.58;;;;;;;-14.70;75.61;99666.63;4914106;28;22513;-64
2022/12/17 16:52:10;;;;;;;10.32;4.97;;;;;;;-14.19;75.23;99751.47;4923410;28;20061;-63
2022/12/17 16:54:56;;;;;;;10.75;5.28;;;;;;;-14.34;74.15;99741.19;4919339;28;20133;-61
2022/12/17 16:57:35;;;;;;;16.50;4.90;;;;;;;-14.44;73.53;99738.75;4912986;28;20050;-63
2022/12/17 17:00:21;;;;;;;6.68;3.58;;;;;;;-14.60;73.17;99726.75;4864607;28;20038;-63
2022/12/17 17:03:03;;;;;;;6.60;4.03;;;;;;;-14.64;73.12;99730.66;4922700;28;20087;-63
2022/12/17 17:05:44;;;;;;;6.95;3.35;;;;;;;-15.07;72.89;99676.47;4939301;28;20151;-64
2022/12/17 17:08:23;;;;;;;7.18;3.58;;;;;;;-14.74;73.28;99714.84;4908291;28;20045;-65
2022/12/17 17:11:27;;;;;;;5.93;3.20;;;;;;;-14.76;73.46;99704.69;4897289;28;20113;-62
2022/12/17 17:14:12;;;;;;;7.28;3.22;;;;;;;-14.73;73.92;99714.06;4902406;28;20371;-63
2022/12/17 17:16:53;;;;;;;7.43;3.40;;;;;;;-14.78;73.72;99722.09;4890885;28;20041;-64
2022/12/17 17:19:42;;;;;;;7.97;4.30;;;;;;;-14.95;73.62;99716.59;4924253;28;20052;-64
2022/12/17 17:22:40;;;;;;;6.93;3.47;;;;;;;-14.97;72.95;99708.97;4921464;28;20051;-62
2022/12/17 17:25:20;;;;;;;7.05;3.67;;;;;;;-14.99;72.91;99697.97;4926898;28;20433;-63
2022/12/17 17:28:31;;;;;;;5.57;3.53;;;;;;;-14.92;73.30;99700.16;4893908;28;20090;-64
2022/12/17 17:37:52;;;;;;;13.13;4.18;;;;;;;-15.03;74.04;99688.44;4931781;28;20103;-62
2022/12/17 17:40:36;;;;;;;9.43;4.05;;;;;;;-14.97;74.73;99683.91;4891177;28;20067;-62
2022/12/17 17:43:22;;;;;;;7.38;4.03;;;;;;;-15.09;75.12;99663.81;4925038;28;20055;-64
2022/12/17 17:46:11;;;;;;;7.60;4.22;;;;;;;-14.94;75.10;99674.09;4915501;28;20095;-63
2022/12/17 17:49:13;;;;;;;8.65;4.22;;;;;;;-14.95;74.80;99667.31;4913093;28;20396;-63
2022/12/17 17:52:03;;;;;;;7.35;3.95;;;;;;;-14.91;75.00;99664.28;4886325;28;20053;-62
2022/12/17 17:55:01;;;;;;;14.68;6.00;;;;;;;-15.03;75.56;99654.22;4876608;28;20505;-64
2022/12/17 17:58:03;;;;;;;5.90;4.07;;;;;;;-15.05;76.06;99664.91;4915004;28;20052;-63
2022/12/17 18:00:48;;;;;;;5.28;3.20;;;;;;;-14.92;76.46;99652.53;4882256;28;20052;-63
2022/12/17 18:03:36;;;;;;;6.68;3.72;;;;;;;-15.10;76.38;99608.53;4851043;28;20054;-62
2022/12/17 18:06:32;;;;;;;9.02;3.80;;;;;;;-14.78;76.12;99656.91;4864404;28;20041;-64
2022/12/17 18:09:42;;;;;;;13.90;5.47;;;;;;;-14.71;76.51;99663.25;4865482;28;20053;-64
2022/12/17 18:15:29;;;;;;;34.90;9.40;;;;;;;-14.73;76.99;99654.75;4906422;28;20092;-63
2022/12/17 18:18:04;;;;;;;;;;;;;;;-14.70;76.97;99649.97;4846339;28;20074;-64
2022/12/17 18:20:51;;;;;;;4.70;3.55;;;;;;;-14.71;76.84;99639.81;4884087;28;19928;-62
2022/12/17 18:23:35;;;;;;;6.00;3.83;;;;;;;-14.66;77.07;99651.06;4890091;28;20257;-63
2022/12/17 18:26:26;;;;;;;16.83;6.10;;;;;;;-14.66;77.00;99631.00;4865048;28;20124;-63
2022/12/17 18:29:15;;;;;;;;;;;;;;;-14.63;77.08;99637.09;4871569;28;20040;-63
2022/12/17 18:32:14;;;;;;;3.35;2.80;;;;;;;-14.80;77.12;99638.41;4921096;28;19924;-63
2022/12/17 18:34:53;;;;;;;5.10;3.10;;;;;;;-14.80;77.33;99643.41;4892327;28;20118;-64
2022/12/17 18:40:31;;;;;;;5.30;3.00;;;;;;;-14.76;77.48;99644.50;4866158;28;20042;-63
2022/12/17 18:43:40;;;;;;;5.47;3.03;;;;;;;-14.69;77.80;99641.69;4892592;28;20037;-62
2022/12/17 18:46:15;;;;;;;7.10;3.38;;;;;;;-14.69;77.86;99645.81;4919776;28;20055;-61
2022/12/17 18:49:04;;;;;;;6.95;4.10;;;;;;;-14.58;77.90;99644.94;4909838;28;20045;-62
2022/12/17 18:51:46;;;;;;;10.38;4.70;;;;;;;-14.52;78.08;99640.38;4894542;28;20045;-63
2022/12/17 18:54:39;;;;;;;14.38;5.78;;;;;;;-14.44;78.47;99636.75;4898960;28;20451;-63
2022/12/17 18:57:35;;;;;;;11.20;5.55;;;;;;;-14.37;78.74;99633.94;4830079;28;20088;-63
2022/12/17 19:00:29;;;;;;;12.10;5.50;;;;;;;-14.39;78.95;99642.97;4893511;28;20062;-63
2022/12/17 19:06:10;;;;;;;10.90;5.85;;;;;;;-14.42;79.69;99627.72;4862963;28;20098;-64
2022/12/17 19:09:07;;;;;;;15.15;6.65;;;;;;;-14.42;79.97;99617.69;4881981;28;20072;-63
2022/12/17 19:15:07;;;;;;;12.07;5.80;;;;;;;-14.12;80.52;99613.09;4907319;28;20065;-64
2022/12/17 19:17:43;;;;;;;12.60;6.00;;;;;;;-13.97;80.62;99614.16;4874993;28;20060;-63
2022/12/17 19:20:41;;;;;;;13.32;5.85;;;;;;;-13.72;80.58;99608.31;4859610;28;20083;-63
2022/12/17 19:23:31;;;;;;;18.50;6.20;;;;;;;-14.26;80.01;99488.25;4862778;28;20323;-66
2022/12/17 19:29:17;;;;;;;12.48;5.65;;;;;;;-13.72;79.19;99600.78;4867342;28;20138;-63
2022/12/17 19:35:09;;;;;;;17.13;8.32;;;;;;;-13.88;78.05;99597.97;4899478;28;20061;-65
2022/12/17 19:37:52;;;;;;;;;;;;;;;-14.00;77.68;99591.34;4896906;28;20053;-65
2022/12/17 19:40:40;;;;;;;31.33;9.65;;;;;;;-14.16;77.33;99586.00;4889526;28;19917;-65
2022/12/17 19:43:27;;;;;;;17.92;8.77;;;;;;;-14.15;76.97;99593.66;4836095;28;20074;-65
2022/12/17 19:46:08;;;;;;;18.33;8.95;;;;;;;-14.19;76.55;99591.69;4896899;28;20052;-66
2022/12/17 19:48:58;;;;;;;23.08;8.45;;;;;;;-14.16;76.07;99596.06;4887044;28;20230;-66
2022/12/17 19:51:45;;;;;;;;;;;;;;;;;;;;;
2022/12/17 19:54:31;;;;;;;16.70;7.53;;;;;;;-14.05;76.34;99599.31;4864089;28;19955;-63
2022/12/17 19:57:08;;;;;;;19.33;7.50;;;;;;;-14.00;76.24;99596.38;4900824;28;20111;-65
2022/12/17 19:59:41;;;;;;;16.77;6.65;;;;;;;-14.01;76.26;99594.59;4885486;28;20057;-65
2022/12/17 20:02:22;;;;;;;13.70;6.35;;;;;;;-14.00;76.62;99588.84;4917945;28;20354;-65
2022/12/17 20:05:14;;;;;;;15.35;6.45;;;;;;;-13.94;77.26;99596.78;4904178;28;20045;-64
2022/12/17 20:08:05;;;;;;;20.40;7.32;;;;;;;-13.82;77.79;99586.72;4875675;28;20062;-66
2022/12/17 20:10:47;;;;;;;16.67;5.80;;;;;;;-13.65;77.96;99592.91;4914534;28;22619;-67
2022/12/17 20:13:25;;;;;;;10.15;5.82;;;;;;;-13.60;77.81;99584.03;4906437;28;20280;-64
2022/12/17 20:16:08;;;;;;;9.98;5.10;;;;;;;-13.63;78.15;99586.31;4889297;28;20046;-65
2022/12/17 20:18:48;;;;;;;8.75;4.80;;;;;;;-13.58;78.65;99574.94;4921345;28;20045;-65
2022/12/17 20:24:46;;;;;;;9.45;4.72;;;;;;;-13.50;79.02;99578.00;4889095;28;20064;-64
2022/12/17 20:27:35;;;;;;;7.15;4.63;;;;;;;-13.47;79.07;99574.03;4920518;28;20061;-64
2022/12/17 20:30:16;;;;;;;8.45;4.55;;;;;;;-13.45;79.41;99566.59;4858468;28;20259;-67
2022/12/17 20:33:07;;;;;;;8.27;3.97;;;;;;;-13.45;79.72;99563.19;4893118;28;20140;-64
2022/12/17 20:38:55;;;;;;;8.85;4.15;;;;;;;-13.45;79.74;99560.69;4903374;28;20040;-65
2022/12/17 20:41:40;;;;;;;8.35;3.15;;;;;;;-13.32;80.19;99558.25;4912265;28;20217;-64
2022/12/17 20:44:21;;;;;;;8.40;4.40;;;;;;;-13.31;80.34;99549.91;4918437;28;20404;-64
2022/12/17 20:47:06;;;;;;;10.90;4.45;;;;;;;-13.40;80.54;99539.25;4867685;28;20505;-65
2022/12/17 20:49:57;;;;;;;7.07;3.10;;;;;;;-13.35;80.34;99552.97;4851648;28;20046;-65
2022/12/17 20:52:34;;;;;;;8.05;3.92;;;;;;;-13.31;80.63;99550.78;4852468;28;20049;-65
2022/12/17 20:55:19;;;;;;;7.15;4.13;;;;;;;-13.32;80.46;99545.66;4899995;28;20678;-64
2022/12/17 20:58:14;;;;;;;14.50;3.65;;;;;;;-13.29;80.63;99538.31;4835489;28;20112;-65
2022/12/17 21:00:59;;;;;;;7.15;3.70;;;;;;;-13.29;80.66;99543.34;4864764;28;20057;-66
2022/12/17 21:06:55;;;;;;;6.88;3.80;;;;;;;-13.47;81.15;99533.81;4906393;28;20050;-65
2022/12/17 21:09:50;;;;;;;5.65;3.28;;;;;;;-13.42;81.11;99540.81;4898707;28;20036;-66
2022/12/17 21:15:24;;;;;;;6.03;3.13;;;;;;;-13.47;81.42;99536.34;4895770;28;20066;-64
2022/12/17 21:18:08;;;;;;;8.85;3.30;;;;;;;-13.49;81.82;99526.94;4936258;28;20075;-65
2022/12/17 21:20:46;;;;;;;6.95;3.88;;;;;;;-13.49;81.67;99527.81;4883453;28;20048;-66
2022/12/17 21:23:30;;;;;;;4.75;3.08;;;;;;;-13.57;81.80;99513.03;4900107;28;20086;-65
2022/12/17 21:26:20;;;;;;;5.63;3.17;;;;;;;-13.55;81.87;99519.88;4890302;28;20059;-66
2022/12/17 21:29:25;;;;;;;7.28;3.03;;;;;;;-13.63;81.91;99510.94;4852651;28;20055;-65
2022/12/17 21:32:11;;;;;;;7.25;3.53;;;;;;;-13.57;81.97;99511.38;4893163;28;20047;-65
2022/12/17 21:35:10;;;;;;;5.10;2.75;;;;;;;-13.60;82.32;99506.16;4882118;28;20049;-65
2022/12/17 21:38:02;;;;;;;5.85;3.20;;;;;;;-13.59;82.34;99492.81;4899625;28;20051;-66
2022/12/17 21:40:47;;;;;;;4.45;3.28;;;;;;;-13.56;82.14;99480.44;4889876;28;20044;-65
2022/12/17 21:43:33;;;;;;;6.50;3.15;;;;;;;-13.59;82.05;99487.78;4888312;28;20079;-65
2022/12/17 21:46:27;;;;;;;5.45;3.50;;;;;;;-13.57;82.26;99481.22;4851324;28;20052;-64
2022/12/17 21:49:24;;;;;;;6.88;3.33;;;;;;;-13.54;82.01;99466.34;4854687;28;20049;-65
2022/12/17 21:52:01;;;;;;;6.15;3.20;;;;;;;-13.50;82.17;99462.41;4892622;28;20051;-66
2022/12/17 21:54:46;;;;;;;7.43;3.50;;;;;;;-13.50;81.99;99453.22;4916809;28;20679;-65
2022/12/17 21:57:37;;;;;;;11.60;3.42;;;;;;;-13.48;81.95;99441.63;4904010;28;20040;-65
2022/12/17 22:00:23;;;;;;;7.88;3.42;;;;;;;-13.45;81.92;99425.88;4897538;28;20273;-65
2022/12/17 22:03:08;;;;;;;7.18;3.00;;;;;;;-13.44;81.91;99406.63;4915007;28;20095;-67
2022/12/17 22:11:38;;;;;;;6.88;3.33;;;;;;;-13.18;81.62;99386.50;4912399;28;20251;-66
2022/12/17 22:14:14;;;;;;;8.07;3.58;;;;;;;-13.22;81.02;99372.00;4927160;28;20051;-65
2022/12/17 22:20:05;;;;;;;7.35;3.80;;;;;;;-13.27;80.85;99360.84;4895601;28;20044;-65
2022/12/17 22:23:04;;;;;;;9.38;3.97;;;;;;;-13.27;80.83;99360.84;4885048;28;20053;-66
2022/12/17 22:25:52;;;;;;;2.70;2.45;;;;;;;-13.20;80.72;99362.94;4932092;28;20477;-65
2022/12/17 22:28:47;;;;;;;6.70;3.50;;;;;;;-13.25;80.77;99364.28;4862589;28;20062;-66
2022/12/17 22:34:19;;;;;;;6.93;3.58;;;;;;;-13.16;80.60;99352.28;4864135;28;20048;-66
2022/12/17 22:37:21;;;;;;;12.15;4.10;;;;;;;-13.09;80.52;99356.91;4872101;28;20060;-65
2022/12/17 22:40:26;;;;;;;9.73;4.57;;;;;;;-13.11;79.55;99348.41;4898289;28;21488;-65
2022/12/17 22:43:33;;;;;;;11.15;4.43;;;;;;;-13.26;79.03;99347.44;4924052;28;20044;-64
2022/12/17 22:46:28;;;;;;;7.75;4.35;;;;;;;-13.34;79.08;99338.59;4888940;28;20055;-65
2022/12/17 22:49:24;;;;;;;7.72;4.68;;;;;;;-13.40;79.00;99338.19;4845054;28;20041;-65
2022/12/17 22:52:21;;;;;;;7.47;4.05;;;;;;;-13.42;79.09;99324.69;4917887;28;20367;-66
2022/12/17 22:55:15;;;;;;;3.60;3.03;;;;;;;-13.41;79.02;99312.19;4870787;28;20084;-67
2022/12/17 22:57:53;;;;;;;7.60;3.47;;;;;;;-13.45;79.43;99294.31;4920635;28;20048;-64
2022/12/17 23:00:38;;;;;;;10.65;3.95;;;;;;;-13.42;79.53;99289.50;4942537;28;20049;-65
2022/12/17 23:03:36;;;;;;;7.00;3.78;;;;;;;-13.35;79.72;99287.47;4920701;28;20075;-65
2022/12/17 23:06:19;;;;;;;10.05;3.88;;;;;;;-13.21;79.90;99278.22;4909198;28;20051;-66
2022/12/17 23:09:06;;;;;;;8.57;3.47;;;;;;;-13.13;79.52;99278.69;4904926;28;20060;-67
2022/12/17 23:15:11;;;;;;;11.20;4.07;;;;;;;-13.14;79.59;99265.25;4899021;28;20122;-66
2022/12/17 23:18:04;;;;;;;10.23;3.65;;;;;;;-13.14;79.06;99252.69;4888256;28;20091;-68
2022/12/17 23:20:54;;;;;;;7.78;3.75;;;;;;;-13.52;79.38;99208.53;4921664;28;20044;-67
2022/12/17 23:23:45;;;;;;;9.77;4.45;;;;;;;-13.23;79.62;99242.06;4887535;28;20056;-68
2022/12/17 23:26:47;;;;;;;9.88;4.10;;;;;;;-13.10;79.23;99253.75;4903218;28;20049;-67
2022/12/17 23:29:57;;;;;;;11.38;4.07;;;;;;;-13.14;79.16;99237.59;4916051;28;20885;-66
2022/12/17 23:35:24;;;;;;;6.10;3.65;;;;;;;-13.14;78.90;99227.53;4916007;28;20087;-67
2022/12/17 23:38:09;;;;;;;9.73;3.83;;;;;;;-13.09;79.09;99228.69;4902930;28;20124;-67
2022/12/17 23:40:47;;;;;;;7.28;3.53;;;;;;;-13.08;78.70;99217.88;4875119;28;20253;-69
2022/12/17 23:43:44;;;;;;;6.20;3.72;;;;;;;-13.06;78.42;99216.28;4914904;28;20118;-68
2022/12/17 23:46:40;;;;;;;5.45;3.22;;;;;;;-12.93;78.49;99207.81;4909412;28;20072;-68
2022/12/17 23:49:29;;;;;;;13.70;4.45;;;;;;;-12.99;78.19;99206.59;4912906;28;20254;-67
2022/12/17 23:52:08;;;;;;;5.82;3.60;;;;;;;-12.90;78.54;99207.13;4902994;28;20568;-68
2022/12/17 23:54:59;;;;;;;8.05;4.32;;;;;;;-12.75;78.63;99198.00;4914376;28;20057;-67
2022/12/17 23:57:46;;;;;;;10.70;4.38;;;;;;;-12.70;78.12;99196.63;4939888;28;20324;-66
